createdAt,value
2022-11-09T00:01:05.759Z,24.92
2022-11-09T00:03:32.693Z,27.50
2022-11-09T00:06:00.564Z,26.83
2022-11-09T00:08:27.604Z,26.10
2022-11-09T00:10:54.425Z,24.90
2022-11-09T00:13:22.127Z,26.02
2022-11-09T00:15:49.423Z,24.63
2022-11-09T00:18:16.124Z,25.38
2022-11-09T00:20:47.702Z,26.02
2022-11-09T00:23:15.416Z,24.20
2022-11-09T00:25:42.112Z,22.85
2022-11-09T00:28:08.910Z,20.20
2022-11-09T00:30:35.668Z,21.25
2022-11-09T00:33:02.354Z,19.98
2022-11-09T00:35:28.990Z,19.75
2022-11-09T00:37:56.002Z,19.92
2022-11-09T00:40:22.864Z,21.10
2022-11-09T00:42:49.469Z,22.67
2022-11-09T00:45:16.562Z,19.77
2022-11-09T00:47:44.548Z,21.00
2022-11-09T00:50:11.265Z,20.85
2022-11-09T00:52:38.433Z,21.92
2022-11-09T00:55:05.636Z,20.85
2022-11-09T00:57:32.349Z,20.20
2022-11-09T00:59:59.006Z,19.60
2022-11-09T01:02:25.777Z,19.65
2022-11-09T01:04:52.492Z,20.98
2022-11-09T01:07:19.490Z,20.08
2022-11-09T01:09:46.369Z,20.88
2022-11-09T01:12:13.050Z,20.45
2022-11-09T01:14:39.691Z,20.33
2022-11-09T01:17:06.512Z,21.13
2022-11-09T01:19:33.141Z,22.20
2022-11-09T01:21:59.788Z,21.25
2022-11-09T01:24:26.442Z,21.13
2022-11-09T01:26:53.037Z,21.77
2022-11-09T01:29:19.692Z,21.95
2022-11-09T01:31:46.837Z,22.20
2022-11-09T01:34:13.497Z,22.30
2022-11-09T01:36:40.052Z,22.42
2022-11-09T01:39:06.904Z,22.25
2022-11-09T01:41:33.581Z,23.35
2022-11-09T01:44:18.480Z,23.17
2022-11-09T01:46:59.846Z,23.17
2022-11-09T01:49:42.006Z,22.88
2022-11-09T01:52:16.764Z,22.10
2022-11-09T01:54:49.114Z,21.85
2022-11-09T02:00:02.874Z,22.13
2022-11-09T02:02:29.589Z,22.60
2022-11-09T02:05:01.657Z,22.23
2022-11-09T02:07:28.994Z,22.00
2022-11-09T02:10:13.572Z,20.48
2022-11-09T02:12:41.130Z,20.92
2022-11-09T02:15:10.506Z,21.08
2022-11-09T02:17:37.746Z,20.95
2022-11-09T02:20:10.920Z,22.15
2022-11-09T02:22:37.518Z,23.50
2022-11-09T02:25:05.077Z,22.67
2022-11-09T02:27:32.296Z,21.17
2022-11-09T02:30:00.664Z,22.00
2022-11-09T02:32:29.902Z,21.35
2022-11-09T02:34:57.094Z,20.80
2022-11-09T02:37:34.608Z,22.95
2022-11-09T02:40:04.650Z,21.65
2022-11-09T02:42:31.907Z,22.10
2022-11-09T02:45:00.025Z,23.30
2022-11-09T02:47:27.193Z,21.77
2022-11-09T02:49:54.079Z,23.85
2022-11-09T02:52:20.742Z,20.63
2022-11-09T02:54:47.802Z,21.08
2022-11-09T02:57:14.457Z,22.42
2022-11-09T02:59:41.140Z,21.45
2022-11-09T03:02:07.764Z,20.35
2022-11-09T03:04:34.513Z,22.75
2022-11-09T03:07:01.327Z,21.92
2022-11-09T03:09:27.981Z,23.20
2022-11-09T03:11:54.635Z,21.85
2022-11-09T03:14:21.373Z,22.73
2022-11-09T03:16:50.802Z,22.80
2022-11-09T03:19:17.790Z,23.65
2022-11-09T03:21:44.411Z,24.60
2022-11-09T03:24:11.051Z,25.17
2022-11-09T03:26:37.716Z,25.85
2022-11-09T03:29:04.323Z,25.15
2022-11-09T03:31:30.980Z,24.90
2022-11-09T03:33:57.620Z,24.75
2022-11-09T03:36:24.402Z,24.55
2022-11-09T03:38:51.090Z,23.63
2022-11-09T03:41:18.274Z,25.45
2022-11-09T03:43:44.828Z,26.02
2022-11-09T03:46:11.458Z,25.80
2022-11-09T03:48:38.099Z,23.90
2022-11-09T03:51:04.755Z,25.77
2022-11-09T03:53:31.583Z,25.55
2022-11-09T03:55:58.416Z,25.58
2022-11-09T03:58:25.024Z,25.52
2022-11-09T04:00:51.690Z,25.13
2022-11-09T04:03:18.504Z,28.70
2022-11-09T04:05:45.339Z,26.20
2022-11-09T04:08:12.182Z,27.25
2022-11-09T04:10:39.126Z,27.63
2022-11-09T04:13:05.849Z,27.98
2022-11-09T04:15:32.497Z,27.00
2022-11-09T04:18:01.106Z,28.60
2022-11-09T04:20:29.684Z,28.85
2022-11-09T04:22:59.004Z,29.88
2022-11-09T04:25:26.411Z,28.13
2022-11-09T04:27:57.873Z,27.08
2022-11-09T04:30:28.209Z,26.67
2022-11-09T04:32:56.584Z,27.08
2022-11-09T04:35:25.739Z,27.48
2022-11-09T04:38:00.859Z,27.80
2022-11-09T04:40:29.876Z,27.90
2022-11-09T04:42:59.775Z,27.15
2022-11-09T04:45:27.148Z,28.48
2022-11-09T04:48:04.504Z,28.25
2022-11-09T04:50:31.857Z,28.80
2022-11-09T04:53:10.568Z,28.67
2022-11-09T04:55:37.929Z,31.30
2022-11-09T04:58:05.067Z,29.92
2022-11-09T05:00:31.767Z,31.25
2022-11-09T05:03:03.794Z,31.02
2022-11-09T05:05:30.872Z,30.20
2022-11-09T05:07:57.429Z,32.47
2022-11-09T05:10:24.257Z,30.80
2022-11-09T05:12:50.985Z,30.70
2022-11-09T05:15:17.711Z,30.33
2022-11-09T05:17:44.631Z,29.90
2022-11-09T05:20:11.739Z,30.05
2022-11-09T05:22:59.712Z,30.33
2022-11-09T05:25:26.292Z,29.08
2022-11-09T05:27:53.227Z,30.23
2022-11-09T05:30:20.083Z,28.70
2022-11-09T05:32:46.712Z,31.15
2022-11-09T05:35:13.560Z,30.10
2022-11-09T05:37:40.567Z,28.60
2022-11-09T05:40:09.285Z,30.98
2022-11-09T05:42:39.658Z,31.30
2022-11-09T05:45:35.472Z,29.40
2022-11-09T05:47:54.117Z,29.60
2022-11-09T05:50:20.853Z,29.27
2022-11-09T05:52:47.545Z,28.45
2022-11-09T05:55:14.174Z,31.70
2022-11-09T05:57:40.792Z,32.20
2022-11-09T06:00:10.939Z,31.30
2022-11-09T06:02:38.018Z,33.33
2022-11-09T06:05:04.970Z,34.45
2022-11-09T06:07:32.774Z,32.00
2022-11-09T06:09:59.433Z,32.15
2022-11-09T06:12:26.056Z,32.75
2022-11-09T06:14:52.876Z,33.95
2022-11-09T06:17:19.724Z,35.17
2022-11-09T06:19:46.334Z,37.33
2022-11-09T06:22:12.952Z,36.47
2022-11-09T06:24:39.796Z,33.90
2022-11-09T06:27:06.796Z,32.65
2022-11-09T06:29:33.769Z,31.02
2022-11-09T06:32:01.184Z,30.67
2022-11-09T06:34:27.839Z,29.65
2022-11-09T06:36:54.484Z,30.35
2022-11-09T06:39:21.289Z,30.08
2022-11-09T06:41:47.931Z,29.90
2022-11-09T06:44:15.267Z,28.15
2022-11-09T06:46:42.209Z,27.25
2022-11-09T06:49:08.922Z,27.98
2022-11-09T06:51:35.656Z,27.33
2022-11-09T06:54:02.488Z,27.40
2022-11-09T06:56:29.141Z,27.08
2022-11-09T06:58:55.809Z,27.50
2022-11-09T07:01:28.262Z,28.88
2022-11-09T07:03:55.142Z,28.88
2022-11-09T07:06:21.846Z,27.00
2022-11-09T07:08:48.487Z,29.00
2022-11-09T07:11:19.747Z,28.90
2022-11-09T07:13:53.447Z,27.55
2022-11-09T07:16:22.945Z,28.88
2022-11-09T07:18:49.643Z,32.00
2022-11-09T07:21:16.246Z,29.40
2022-11-09T07:23:43.476Z,28.65
2022-11-09T07:26:10.348Z,28.92
2022-11-09T07:28:37.025Z,28.73
2022-11-09T07:31:04.035Z,27.92
2022-11-09T07:33:32.747Z,28.23
2022-11-09T07:36:01.307Z,29.45
2022-11-09T07:38:31.464Z,29.88
2022-11-09T07:41:00.433Z,29.48
2022-11-09T07:43:27.756Z,28.08
2022-11-09T07:45:54.617Z,28.73
2022-11-09T07:48:21.464Z,29.35
2022-11-09T07:50:48.593Z,28.70
2022-11-09T07:53:16.146Z,29.73
2022-11-09T07:55:42.913Z,27.48
2022-11-09T07:58:13.399Z,27.83
2022-11-09T08:00:41.420Z,28.17
2022-11-09T08:03:08.235Z,29.42
2022-11-09T08:05:35.726Z,27.40
2022-11-09T08:08:05.194Z,27.42
2022-11-09T08:10:33.238Z,27.08
2022-11-09T08:13:02.693Z,26.42
2022-11-09T08:15:30.034Z,26.50
2022-11-09T08:18:05.216Z,27.83
2022-11-09T08:20:32.228Z,26.88
2022-11-09T08:23:03.780Z,26.13
2022-11-09T08:25:35.925Z,25.55
2022-11-09T08:28:03.724Z,25.73
2022-11-09T08:30:31.413Z,25.70
2022-11-09T08:33:02.952Z,27.35
2022-11-09T08:35:30.266Z,25.15
2022-11-09T08:38:00.458Z,25.52
2022-11-09T08:40:27.339Z,26.77
2022-11-09T08:42:54.249Z,27.67
2022-11-09T08:45:21.002Z,27.48
2022-11-09T08:47:48.404Z,27.45
2022-11-09T08:50:15.577Z,26.70
2022-11-09T08:52:42.865Z,28.10
2022-11-09T08:55:09.831Z,26.42
2022-11-09T08:57:36.558Z,27.30
2022-11-09T09:00:04.723Z,26.17
2022-11-09T09:02:31.662Z,25.50
2022-11-09T09:04:58.333Z,25.58
2022-11-09T09:07:25.088Z,26.52
2022-11-09T09:09:51.822Z,25.23
2022-11-09T09:12:19.005Z,25.40
2022-11-09T09:14:45.711Z,26.85
2022-11-09T09:17:12.566Z,26.00
2022-11-09T09:19:39.230Z,25.58
2022-11-09T09:22:06.074Z,25.42
2022-11-09T09:24:32.829Z,25.95
2022-11-09T09:26:59.514Z,27.65
2022-11-09T09:29:26.670Z,27.77
2022-11-09T09:31:53.526Z,26.55
2022-11-09T09:34:20.150Z,26.70
2022-11-09T09:36:48.402Z,26.88
2022-11-09T09:39:15.656Z,27.98
2022-11-09T09:41:55.809Z,26.95
2022-11-09T09:44:29.214Z,28.45
2022-11-09T09:47:00.320Z,28.63
2022-11-09T09:49:31.416Z,28.85
2022-11-09T09:52:36.321Z,27.38
2022-11-09T09:55:33.052Z,28.05
2022-11-09T09:58:07.820Z,27.17
2022-11-09T10:00:36.310Z,26.98
2022-11-09T10:03:03.608Z,27.77
2022-11-09T10:05:51.528Z,27.95
2022-11-09T10:08:54.986Z,26.90
2022-11-09T10:12:04.018Z,25.95
2022-11-09T10:15:15.791Z,25.80
2022-11-09T10:18:08.036Z,25.60
2022-11-09T10:20:53.261Z,26.73
2022-11-09T10:23:40.173Z,26.48
2022-11-09T10:26:21.585Z,28.33
2022-11-09T10:29:15.090Z,26.65
2022-11-09T10:31:46.345Z,26.75
2022-11-09T10:34:35.450Z,25.42
2022-11-09T10:37:10.702Z,24.23
2022-11-09T10:39:47.521Z,25.45
2022-11-09T10:42:14.199Z,25.67
2022-11-09T10:44:41.312Z,28.20
2022-11-09T10:47:11.411Z,28.08
2022-11-09T10:49:39.364Z,28.05
2022-11-09T10:52:27.082Z,27.50
2022-11-09T10:54:53.869Z,28.10
2022-11-09T10:57:23.493Z,27.85
2022-11-09T11:00:01.102Z,28.30
2022-11-09T11:02:29.030Z,27.25
2022-11-09T11:05:07.697Z,26.90
2022-11-09T11:07:35.816Z,28.35
2022-11-09T11:10:18.390Z,25.65
2022-11-09T11:12:51.974Z,26.25
2022-11-09T11:15:32.810Z,25.63
2022-11-09T11:18:13.077Z,26.35
2022-11-09T11:20:39.732Z,25.77
2022-11-09T11:23:09.236Z,25.88
2022-11-09T11:25:54.020Z,25.55
2022-11-09T11:28:56.487Z,25.38
2022-11-09T11:33:50.095Z,25.98
2022-11-09T11:36:58.245Z,25.27
2022-11-09T11:39:36.635Z,25.83
2022-11-09T11:42:24.638Z,24.83
2022-11-09T11:45:40.145Z,24.02
2022-11-09T11:48:26.510Z,23.70
2022-11-09T11:51:18.282Z,23.30
2022-11-09T11:54:15.108Z,24.63
2022-11-09T11:57:02.031Z,24.02
2022-11-09T11:59:37.814Z,23.58
2022-11-09T12:02:32.337Z,23.10
2022-11-09T12:05:46.634Z,23.42
2022-11-09T12:08:25.653Z,24.35
2022-11-09T12:11:01.322Z,23.17
2022-11-09T12:13:48.433Z,27.90
2022-11-09T12:16:26.089Z,26.00
2022-11-09T12:19:35.558Z,23.20
2022-11-09T12:22:25.135Z,23.88
2022-11-09T12:24:58.301Z,24.45
2022-11-09T12:27:54.069Z,23.23
2022-11-09T12:30:24.053Z,25.38
2022-11-09T12:33:15.865Z,24.05
2022-11-09T12:35:55.815Z,26.20
2022-11-09T12:38:36.662Z,24.35
2022-11-09T12:41:16.305Z,24.08
2022-11-09T12:43:52.834Z,24.98
2022-11-09T12:46:23.612Z,23.17
2022-11-09T12:48:50.318Z,24.77
2022-11-09T12:51:17.704Z,24.83
2022-11-09T12:53:44.506Z,24.42
2022-11-09T12:56:24.856Z,25.27
2022-11-09T12:58:51.791Z,24.60
2022-11-09T13:01:33.715Z,25.63
2022-11-09T13:04:03.158Z,25.30
2022-11-09T13:06:32.267Z,24.70
2022-11-09T13:09:18.512Z,24.10
2022-11-09T13:11:48.415Z,23.55
2022-11-09T13:14:29.242Z,25.52
2022-11-09T13:17:01.497Z,24.40
2022-11-09T13:19:34.065Z,25.02
2022-11-09T13:22:20.690Z,23.50
2022-11-09T13:24:54.378Z,24.00
2022-11-09T13:27:32.734Z,24.92
2022-11-09T13:30:01.010Z,23.88
2022-11-09T13:32:29.979Z,23.85
2022-11-09T13:34:58.418Z,24.00
2022-11-09T13:37:40.725Z,24.38
2022-11-09T13:40:32.201Z,23.75
2022-11-09T13:43:04.098Z,23.17
2022-11-09T13:45:39.146Z,22.25
2022-11-09T13:48:06.985Z,23.15
2022-11-09T13:50:35.030Z,23.95
2022-11-09T13:53:02.570Z,23.20
2022-11-09T13:55:47.306Z,23.85
2022-11-09T13:58:28.891Z,22.85
2022-11-09T14:00:55.517Z,23.77
2022-11-09T14:03:26.018Z,25.35
2022-11-09T14:05:55.742Z,23.10
2022-11-09T14:08:24.441Z,22.60
2022-11-09T14:11:16.146Z,24.00
2022-11-09T14:14:03.137Z,24.30
2022-11-09T14:16:39.058Z,23.90
2022-11-09T14:19:17.870Z,23.67
2022-11-09T14:21:47.838Z,21.58
2022-11-09T14:24:32.727Z,23.67
2022-11-09T14:27:13.444Z,23.67
2022-11-09T14:29:57.635Z,25.23
2022-11-09T14:32:36.213Z,23.77
2022-11-09T14:35:14.749Z,23.75
2022-11-09T14:37:45.269Z,23.83
2022-11-09T14:40:21.719Z,25.25
2022-11-09T14:42:51.405Z,24.60
2022-11-09T14:45:18.327Z,25.42
2022-11-09T14:47:47.408Z,24.70
2022-11-09T14:50:24.106Z,25.08
2022-11-09T14:52:52.937Z,26.92
2022-11-09T14:55:21.530Z,27.25
2022-11-09T14:57:50.262Z,25.75
2022-11-09T15:00:38.740Z,26.45
2022-11-09T15:03:26.131Z,26.85
2022-11-09T15:06:14.926Z,29.23
2022-11-09T15:09:00.345Z,28.08
2022-11-09T15:11:39.305Z,28.00
2022-11-09T15:14:19.010Z,28.00
2022-11-09T15:16:47.967Z,27.88
2022-11-09T15:19:30.014Z,27.98
2022-11-09T15:21:56.877Z,28.55
2022-11-09T15:24:25.866Z,26.33
2022-11-09T15:26:53.755Z,28.17
2022-11-09T15:29:35.617Z,29.17
2022-11-09T15:32:11.683Z,28.50
2022-11-09T15:34:59.383Z,29.55
2022-11-09T15:37:47.444Z,29.73
2022-11-09T15:40:17.200Z,30.17
2022-11-09T15:42:46.376Z,29.20
2022-11-09T15:45:18.461Z,29.85
2022-11-09T15:47:53.879Z,30.45
2022-11-09T15:50:24.348Z,32.60
2022-11-09T15:52:52.020Z,32.75
2022-11-09T15:55:23.362Z,34.40
2022-11-09T15:57:52.501Z,33.70
2022-11-09T16:00:21.482Z,32.72
2022-11-09T16:02:48.755Z,30.48
2022-11-09T16:05:16.038Z,28.40
2022-11-09T16:07:50.171Z,27.73
2022-11-09T16:10:20.533Z,28.55
2022-11-09T16:12:47.609Z,28.08
2022-11-09T16:15:14.391Z,28.70
2022-11-09T16:17:40.994Z,28.58
2022-11-09T16:20:08.186Z,32.47
2022-11-09T16:22:35.061Z,30.70
2022-11-09T16:25:01.951Z,29.48
2022-11-09T16:27:49.200Z,29.85
2022-11-09T16:30:15.861Z,30.08
2022-11-09T16:32:42.765Z,30.00
2022-11-09T16:35:27.767Z,31.13
2022-11-09T16:37:55.475Z,31.63
2022-11-09T16:40:22.958Z,32.88
2022-11-09T16:42:51.637Z,31.55
2022-11-09T16:45:18.300Z,33.03
2022-11-09T16:47:56.402Z,30.88
2022-11-09T16:50:24.592Z,31.15
2022-11-09T16:52:51.385Z,32.80
2022-11-09T16:55:18.005Z,32.92
2022-11-09T16:57:46.316Z,33.58
2022-11-09T17:00:13.834Z,33.78
2022-11-09T17:02:40.389Z,34.95
2022-11-09T17:05:07.390Z,34.97
2022-11-09T17:07:42.124Z,36.08
2022-11-09T17:10:09.689Z,38.78
2022-11-09T17:12:36.582Z,38.20
2022-11-09T17:15:03.310Z,37.03
2022-11-09T17:17:29.954Z,36.38
2022-11-09T17:19:56.695Z,38.85
2022-11-09T17:22:23.391Z,38.13
2022-11-09T17:24:50.225Z,38.47
2022-11-09T17:27:16.966Z,44.25
2022-11-09T17:29:43.556Z,52.00
2022-11-09T17:32:10.656Z,55.15
2022-11-09T17:34:37.557Z,65.28
2022-11-09T17:37:05.553Z,65.97
2022-11-09T17:39:33.008Z,60.28
2022-11-09T17:41:59.785Z,56.88
2022-11-09T17:44:27.019Z,63.72
2022-11-09T17:46:53.834Z,55.92
2022-11-09T17:49:20.398Z,50.95
2022-11-09T17:51:47.101Z,52.38
2022-11-09T17:54:15.051Z,53.50
2022-11-09T17:56:41.999Z,52.08
2022-11-09T17:59:09.186Z,49.88
2022-11-09T18:01:41.042Z,54.53
2022-11-09T18:04:10.723Z,53.13
2022-11-09T18:06:38.824Z,51.17
2022-11-09T18:11:53.066Z,49.50
2022-11-09T18:14:20.029Z,48.47
2022-11-09T18:16:46.730Z,44.28
2022-11-09T18:19:13.485Z,54.78
2022-11-09T18:21:40.177Z,55.22
2022-11-09T18:24:07.374Z,55.83
2022-11-09T18:26:34.380Z,62.50
2022-11-09T18:29:01.270Z,59.10
2022-11-09T18:31:28.053Z,60.50
2022-11-09T18:34:59.684Z,56.10
2022-11-09T18:38:20.340Z,47.35
2022-11-09T18:41:01.512Z,46.42
2022-11-09T18:43:28.325Z,47.03
2022-11-09T18:46:02.993Z,49.00
2022-11-09T18:48:30.372Z,47.55
2022-11-09T18:50:58.745Z,49.30
2022-11-09T18:53:33.625Z,48.78
2022-11-09T18:56:06.548Z,48.83
2022-11-09T18:58:34.205Z,47.65
2022-11-09T19:01:06.152Z,47.92
2022-11-09T19:03:33.416Z,46.95
2022-11-09T19:06:08.120Z,50.53
2022-11-09T19:08:53.765Z,51.47
2022-11-09T19:11:20.413Z,55.40
2022-11-09T19:13:47.739Z,56.88
2022-11-09T19:16:15.460Z,58.90
2022-11-09T19:18:44.674Z,56.97
2022-11-09T19:21:31.833Z,56.80
2022-11-09T19:23:58.627Z,57.67
2022-11-09T19:26:27.747Z,60.30
2022-11-09T19:28:54.396Z,53.72
2022-11-09T19:31:22.691Z,52.50
2022-11-09T19:33:49.347Z,53.67
2022-11-09T19:36:29.775Z,53.15
2022-11-09T19:38:57.867Z,55.90
2022-11-09T19:41:26.018Z,55.33
2022-11-09T19:43:55.625Z,57.70
2022-11-09T19:46:22.369Z,61.05
2022-11-09T19:48:49.328Z,56.53
2022-11-09T19:51:17.813Z,62.80
2022-11-09T19:53:52.733Z,63.63
2022-11-09T19:56:21.184Z,64.40
2022-11-09T19:58:54.309Z,62.65
2022-11-09T20:01:24.715Z,55.47
2022-11-09T20:03:56.867Z,54.28
2022-11-09T20:06:24.559Z,53.47
2022-11-09T20:08:52.238Z,51.85
2022-11-09T20:11:41.682Z,51.42
2022-11-09T20:14:09.559Z,51.20
2022-11-09T20:16:37.360Z,50.83
2022-11-09T20:19:05.930Z,50.20
2022-11-09T20:21:32.924Z,51.63
2022-11-09T20:23:59.567Z,50.63
2022-11-09T20:26:26.289Z,49.67
2022-11-09T20:28:54.799Z,49.42
2022-11-09T20:31:25.786Z,49.22
2022-11-09T20:33:56.613Z,47.45
2022-11-09T20:36:23.158Z,48.05
2022-11-09T20:38:49.939Z,47.53
2022-11-09T20:41:18.013Z,48.15
2022-11-09T20:43:47.230Z,44.67
2022-11-09T20:46:19.774Z,44.30
2022-11-09T20:48:54.220Z,46.38
2022-11-09T20:51:22.822Z,48.40
2022-11-09T20:53:50.846Z,48.40
2022-11-09T20:56:18.848Z,45.20
2022-11-09T20:58:45.834Z,44.92
2022-11-09T21:01:15.948Z,47.95
2022-11-09T21:03:43.496Z,47.50
2022-11-09T21:06:11.992Z,48.05
2022-11-09T21:08:39.094Z,50.88
2022-11-09T21:11:08.016Z,46.30
2022-11-09T21:13:34.835Z,47.20
2022-11-09T21:16:10.169Z,43.33
2022-11-09T21:18:36.900Z,43.35
2022-11-09T21:21:15.681Z,47.33
2022-11-09T21:24:01.285Z,46.97
2022-11-09T21:26:47.333Z,49.38
2022-11-09T21:29:41.449Z,49.65
2022-11-09T21:32:09.472Z,47.65
2022-11-09T21:34:37.297Z,49.55
2022-11-09T21:37:04.687Z,46.78
2022-11-09T21:39:31.434Z,46.67
2022-11-09T21:41:58.786Z,47.90
2022-11-09T21:44:27.776Z,46.38
2022-11-09T21:46:54.491Z,45.42
2022-11-09T21:49:21.751Z,46.60
2022-11-09T21:51:48.411Z,47.22
2022-11-09T21:54:15.134Z,45.42
2022-11-09T21:56:41.940Z,48.58
2022-11-09T21:59:08.652Z,46.53
2022-11-09T22:01:35.886Z,47.83
2022-11-09T22:04:02.736Z,45.83
2022-11-09T22:06:30.248Z,46.22
2022-11-09T22:08:57.002Z,44.33
2022-11-09T22:11:46.118Z,44.88
2022-11-09T22:14:33.555Z,45.53
2022-11-09T22:17:00.745Z,50.00
2022-11-09T22:19:47.181Z,48.22
2022-11-09T22:22:14.670Z,47.55
2022-11-09T22:24:41.379Z,46.03
2022-11-09T22:27:08.184Z,47.97
2022-11-09T22:29:34.894Z,46.03
2022-11-09T22:32:02.687Z,48.83
2022-11-09T22:34:29.387Z,48.67
2022-11-09T22:36:56.068Z,49.40
2022-11-09T22:39:22.796Z,51.30
2022-11-09T22:41:49.429Z,46.00
2022-11-09T22:44:16.164Z,46.20
2022-11-09T22:46:42.971Z,46.72
2022-11-09T22:49:10.444Z,48.38
2022-11-09T22:51:37.239Z,49.60
2022-11-09T22:54:04.099Z,48.72
2022-11-09T22:56:30.820Z,49.08
2022-11-09T22:58:57.459Z,47.25
2022-11-09T23:01:24.192Z,48.70
2022-11-09T23:03:50.990Z,48.83
2022-11-09T23:06:20.952Z,48.85
2022-11-09T23:08:48.250Z,47.53
2022-11-09T23:11:17.882Z,47.03
2022-11-09T23:13:48.328Z,48.72
2022-11-09T23:16:15.171Z,48.10
2022-11-09T23:18:54.102Z,45.78
2022-11-09T23:21:41.551Z,48.42
2022-11-09T23:24:30.981Z,49.83
2022-11-09T23:26:57.546Z,47.97
2022-11-09T23:29:24.220Z,44.60
2022-11-09T23:31:50.801Z,45.72
2022-11-09T23:34:17.690Z,45.08
2022-11-09T23:36:44.484Z,48.75
2022-11-09T23:39:11.259Z,46.10
2022-11-09T23:41:37.890Z,49.50
2022-11-09T23:44:04.541Z,46.55
2022-11-09T23:46:31.177Z,47.78
2022-11-09T23:48:57.897Z,51.53
2022-11-09T23:51:24.627Z,53.88
2022-11-09T23:53:51.378Z,53.83
2022-11-09T23:56:19.306Z,54.70
2022-11-09T23:58:51.463Z,51.25
